Time;durP1;ratioP1;P1;durP2;ratioP2;P2;SDS_P1;SDS_P2;PMS_P1;PMS_P2;Temp;Humidity;BMP_temperature;BMP_pressure;BME280_temperature;BME280_humidity;BME280_pressure;Samples;Min_cycle;Max_cycle;Signal;HPM_P1;HPM_P2
2022/01/05 00:02:05;;;;;;;;;;;4.00;99.90;;;;;;4950760;28;19917;-67
2022/01/05 00:04:30;;;;;;;;;;;3.90;99.90;;;;;;4953405;28;20433;-67
2022/01/05 00:06:56;;;;;;;;;;;4.00;99.90;;;;;;4953632;29;20310;-67
2022/01/05 00:09:21;;;;;;;;;;;4.00;99.90;;;;;;4949927;28;19989;-67
2022/01/05 00:11:47;;;;;;;;;;;3.90;99.90;;;;;;4952499;29;19954;-67
2022/01/05 00:14:13;;;;;;;;;;;3.90;99.90;;;;;;4945563;28;19910;-67
2022/01/05 00:16:38;;;;;;;;;;;4.00;99.90;;;;;;4945506;29;20385;-68
2022/01/05 00:19:04;;;;;;;;;;;3.90;99.90;;;;;;4948400;28;20085;-67
2022/01/05 00:21:29;;;;;;;;;;;3.80;99.90;;;;;;4948627;28;19917;-68
2022/01/05 00:23:55;;;;;;;;;;;3.90;99.90;;;;;;4935743;29;19918;-68
2022/01/05 00:26:20;;;;;;;;;;;3.80;99.90;;;;;;4951680;29;19914;-67
2022/01/05 00:28:45;;;;;;;;;;;3.80;99.90;;;;;;4950960;29;20656;-67
2022/01/05 00:31:11;;;;;;;;;;;3.80;99.90;;;;;;4935593;29;19919;-67
2022/01/05 00:33:36;;;;;;;;;;;3.70;99.90;;;;;;4944676;29;19916;-68
2022/01/05 00:36:03;;;;;;;;;;;3.80;99.90;;;;;;4952352;29;19914;-68
2022/01/05 00:38:29;;;;;;;;;;;3.70;99.90;;;;;;4950928;29;20001;-67
2022/01/05 00:40:54;;;;;;;;;;;3.80;99.90;;;;;;4949582;29;19993;-67
2022/01/05 00:43:20;;;;;;;;;;;3.70;99.90;;;;;;4953119;29;19910;-67
2022/01/05 00:45:45;;;;;;;;;;;3.80;99.90;;;;;;4951234;28;20344;-67
2022/01/05 00:48:11;;;;;;;;;;;3.80;99.90;;;;;;4934215;29;19915;-67
2022/01/05 00:50:36;;;;;;;;;;;3.80;99.90;;;;;;4950246;28;20554;-67
2022/01/05 00:53:02;;;;;;;;;;;3.80;99.90;;;;;;4948217;29;19922;-67
2022/01/05 00:55:28;;;;;;;;;;;3.70;99.90;;;;;;4951444;29;20413;-67
2022/01/05 00:57:53;;;;;;;;;;;3.70;99.90;;;;;;4952874;29;19981;-66
2022/01/05 01:00:19;;;;;;;;;;;3.70;99.90;;;;;;4949797;28;19942;-67
2022/01/05 01:02:44;;;;;;;;;;;3.80;99.90;;;;;;4945525;28;19997;-67
2022/01/05 01:05:11;;;;;;;;;;;3.90;99.90;;;;;;4951388;29;19917;-67
2022/01/05 01:07:36;;;;;;;;;;;3.90;99.90;;;;;;4952450;29;20285;-67
2022/01/05 01:10:03;;;;;;;;;;;3.90;99.90;;;;;;4950629;29;19921;-67
2022/01/05 01:12:28;;;;;;;;;;;3.90;99.90;;;;;;4933755;29;19910;-67
2022/01/05 01:14:54;;;;;;;;;;;3.80;99.90;;;;;;4935458;29;20392;-67
2022/01/05 01:17:19;;;;;;;;;;;3.80;99.90;;;;;;4952952;29;19945;-67
2022/01/05 01:19:45;;;;;;;;;;;3.80;99.90;;;;;;4949735;28;19911;-67
2022/01/05 01:22:10;;;;;;;;;;;3.80;99.90;;;;;;4935116;29;20296;-67
2022/01/05 01:24:36;;;;;;;;;;;3.80;99.90;;;;;;4952800;29;19910;-67
2022/01/05 01:27:02;;;;;;;;;;;3.80;99.90;;;;;;4952171;28;19914;-67
2022/01/05 01:29:27;;;;;;;;;;;3.80;99.90;;;;;;4941856;29;19914;-67
2022/01/05 01:31:53;;;;;;;;;;;3.80;99.90;;;;;;4951386;29;19911;-68
2022/01/05 01:34:18;;;;;;;;;;;3.80;99.90;;;;;;4953492;29;19910;-66
2022/01/05 01:36:44;;;;;;;;;;;3.80;99.90;;;;;;4952459;29;19981;-67
2022/01/05 01:39:09;;;;;;;;;;;3.80;99.90;;;;;;4949989;29;19910;-67
2022/01/05 01:41:35;;;;;;;;;;;3.90;99.90;;;;;;4951884;29;19913;-67
2022/01/05 01:44:00;;;;;;;;;;;3.90;99.90;;;;;;4949312;29;19918;-67
2022/01/05 01:46:26;;;;;;;;;;;3.90;99.90;;;;;;4949000;28;19917;-67
2022/01/05 01:48:51;;;;;;;;;;;3.90;99.90;;;;;;4941930;29;19918;-67
2022/01/05 01:51:17;;;;;;;;;;;3.90;99.90;;;;;;4927407;29;19917;-67
2022/01/05 01:53:43;;;;;;;;;;;4.00;99.90;;;;;;4950619;28;19918;-67
2022/01/05 01:56:09;;;;;;;;;;;4.00;99.90;;;;;;4951919;29;19917;-67
2022/01/05 01:58:35;;;;;;;;;;;4.00;99.90;;;;;;4950510;29;19918;-67
2022/01/05 02:01:01;;;;;;;;;;;4.00;99.90;;;;;;4951071;29;20396;-67
2022/01/05 02:03:26;;;;;;;;;;;4.00;99.90;;;;;;4934908;29;20403;-68
2022/01/05 02:05:52;;;;;;;;;;;4.10;99.90;;;;;;4944770;29;19965;-66
2022/01/05 02:08:17;;;;;;;;;;;4.10;99.90;;;;;;4947347;28;19922;-67
2022/01/05 02:10:43;;;;;;;;;;;4.10;99.90;;;;;;4945272;29;19910;-67
2022/01/05 02:13:09;;;;;;;;;;;4.10;99.90;;;;;;4951185;29;19917;-67
2022/01/05 02:15:35;;;;;;;;;;;4.00;99.90;;;;;;4954522;28;19941;-68
2022/01/05 02:20:29;;;;;;;;;;;4.10;99.90;;;;;;4952981;29;19910;-67
2022/01/05 02:22:55;;;;;;;;;;;4.10;99.90;;;;;;4955444;28;20399;-67
2022/01/05 02:25:21;;;;;;;;;;;4.10;99.90;;;;;;4949237;29;19970;-67
2022/01/05 02:27:47;;;;;;;;;;;4.10;99.90;;;;;;4936062;29;19918;-67
2022/01/05 02:30:17;;;;;;;;;;;4.20;99.90;;;;;;4953587;29;20455;-68
2022/01/05 02:32:42;;;;;;;;;;;4.20;99.90;;;;;;4954864;28;19957;-67
2022/01/05 02:35:08;;;;;;;;;;;4.30;99.90;;;;;;4955066;28;20385;-67
2022/01/05 02:37:45;;;;;;;;;;;4.30;99.90;;;;;;4947463;29;19917;-67
2022/01/05 02:40:11;;;;;;;;;;;4.40;99.90;;;;;;4952205;29;19914;-67
2022/01/05 02:42:37;;;;;;;;;;;4.40;99.90;;;;;;4954839;28;19957;-67
2022/01/05 02:45:03;;;;;;;;;;;4.40;99.90;;;;;;4942421;29;19938;-67
2022/01/05 02:47:28;;;;;;;;;;;4.40;99.90;;;;;;4948768;29;20385;-67
2022/01/05 02:50:00;;;;;;;;;;;4.40;99.90;;;;;;4951259;29;20433;-67
2022/01/05 02:52:25;;;;;;;;;;;4.40;99.90;;;;;;4938215;29;19981;-67
2022/01/05 02:54:51;;;;;;;;;;;4.40;99.90;;;;;;4952183;29;20282;-67
2022/01/05 02:57:17;;;;;;;;;;;4.40;99.90;;;;;;4949478;28;19917;-67
2022/01/05 02:59:42;;;;;;;;;;;4.40;99.90;;;;;;4957420;28;20385;-67
2022/01/05 03:02:08;;;;;;;;;;;4.40;99.90;;;;;;4955577;29;19910;-67
2022/01/05 03:04:33;;;;;;;;;;;4.40;99.90;;;;;;4949103;29;20370;-68
2022/01/05 03:06:59;;;;;;;;;;;4.40;99.90;;;;;;4955411;29;19961;-67
2022/01/05 03:09:25;;;;;;;;;;;4.40;99.90;;;;;;4952331;29;20308;-67
2022/01/05 03:11:51;;;;;;;;;;;4.40;99.90;;;;;;4954836;29;19910;-67
2022/01/05 03:14:16;;;;;;;;;;;4.40;99.90;;;;;;4948347;29;19915;-67
2022/01/05 03:16:42;;;;;;;;;;;4.40;99.90;;;;;;4953857;29;19924;-67
2022/01/05 03:19:08;;;;;;;;;;;4.40;99.90;;;;;;4951436;28;20221;-67
2022/01/05 03:21:33;;;;;;;;;;;4.40;99.90;;;;;;4954447;29;19910;-67
2022/01/05 03:23:59;;;;;;;;;;;4.40;99.90;;;;;;4951396;29;19950;-67
2022/01/05 03:26:24;;;;;;;;;;;4.30;99.90;;;;;;4937066;29;20161;-67
2022/01/05 03:28:50;;;;;;;;;;;4.40;99.90;;;;;;4950400;29;20203;-68
2022/01/05 03:31:15;;;;;;;;;;;4.40;99.90;;;;;;4955263;29;19954;-67
2022/01/05 03:33:41;;;;;;;;;;;4.40;99.90;;;;;;4952920;29;20020;-67
2022/01/05 03:36:06;;;;;;;;;;;4.50;99.90;;;;;;4954900;29;19925;-68
2022/01/05 03:38:32;;;;;;;;;;;4.50;99.90;;;;;;4953519;29;20014;-67
2022/01/05 03:40:58;;;;;;;;;;;4.50;99.90;;;;;;4951620;28;19925;-67
2022/01/05 03:43:23;;;;;;;;;;;4.40;99.90;;;;;;4952183;29;19938;-67
2022/01/05 03:45:49;;;;;;;;;;;4.50;99.90;;;;;;4954439;29;20005;-67
2022/01/05 03:48:15;;;;;;;;;;;4.40;99.90;;;;;;4952519;29;19918;-67
2022/01/05 03:50:41;;;;;;;;;;;4.40;99.90;;;;;;4951492;29;20065;-67
2022/01/05 03:53:07;;;;;;;;;;;4.40;99.90;;;;;;4951999;29;20145;-67
2022/01/05 03:55:33;;;;;;;;;;;4.40;99.90;;;;;;4953870;29;20312;-66
2022/01/05 03:57:59;;;;;;;;;;;4.40;99.90;;;;;;4949107;28;19981;-68
2022/01/05 04:00:27;;;;;;;;;;;4.40;99.90;;;;;;4951646;28;20393;-67
2022/01/05 04:02:53;;;;;;;;;;;4.50;99.90;;;;;;4937051;29;20144;-67
2022/01/05 04:05:18;;;;;;;;;;;4.40;99.90;;;;;;4954332;28;20517;-68
2022/01/05 04:07:44;;;;;;;;;;;4.40;99.90;;;;;;4935862;29;19911;-67
2022/01/05 04:10:09;;;;;;;;;;;4.40;99.90;;;;;;4934610;29;19911;-67
2022/01/05 04:12:35;;;;;;;;;;;4.50;99.90;;;;;;4950677;29;19915;-68
2022/01/05 04:15:00;;;;;;;;;;;4.50;99.90;;;;;;4953756;29;19938;-68
2022/01/05 04:17:26;;;;;;;;;;;4.50;99.90;;;;;;4935468;29;19918;-68
2022/01/05 04:19:52;;;;;;;;;;;4.50;99.90;;;;;;4948444;29;19921;-68
2022/01/05 04:22:17;;;;;;;;;;;4.50;99.90;;;;;;4949336;29;19949;-68
2022/01/05 04:24:43;;;;;;;;;;;4.50;99.90;;;;;;4953312;29;20349;-68
2022/01/05 04:27:08;;;;;;;;;;;4.60;99.90;;;;;;4953118;29;19917;-68
2022/01/05 04:29:34;;;;;;;;;;;4.50;99.90;;;;;;4947650;28;19942;-67
2022/01/05 04:32:00;;;;;;;;;;;4.50;99.90;;;;;;4954192;29;19938;-67
2022/01/05 04:34:26;;;;;;;;;;;4.50;99.90;;;;;;4954319;29;19918;-67
2022/01/05 04:36:52;;;;;;;;;;;4.50;99.90;;;;;;4937138;28;20356;-67
2022/01/05 04:39:17;;;;;;;;;;;4.50;99.90;;;;;;4945502;28;19925;-67
2022/01/05 04:41:43;;;;;;;;;;;4.50;99.90;;;;;;4946097;28;19918;-68
2022/01/05 04:44:08;;;;;;;;;;;4.50;99.90;;;;;;4952588;28;19911;-68
2022/01/05 04:46:34;;;;;;;;;;;4.50;99.90;;;;;;4951991;29;19917;-67
2022/01/05 04:48:59;;;;;;;;;;;4.60;99.90;;;;;;4928913;29;19914;-67
2022/01/05 04:51:25;;;;;;;;;;;4.60;99.90;;;;;;4950267;29;19961;-67
2022/01/05 04:53:51;;;;;;;;;;;4.60;99.90;;;;;;4953027;29;19918;-68
2022/01/05 04:56:17;;;;;;;;;;;4.50;99.90;;;;;;4952611;28;19914;-68
2022/01/05 04:58:42;;;;;;;;;;;4.60;99.90;;;;;;4947964;29;19937;-68
2022/01/05 05:01:08;;;;;;;;;;;4.50;99.90;;;;;;4952198;29;19993;-67
2022/01/05 05:03:33;;;;;;;;;;;4.50;99.90;;;;;;4935818;29;19968;-67
2022/01/05 05:05:59;;;;;;;;;;;4.50;99.90;;;;;;4953505;28;19910;-68
2022/01/05 05:08:24;;;;;;;;;;;4.60;99.90;;;;;;4946848;28;20067;-68
2022/01/05 05:10:50;;;;;;;;;;;4.60;99.90;;;;;;4946724;28;20001;-67
2022/01/05 05:13:15;;;;;;;;;;;4.60;99.90;;;;;;4952605;29;20730;-67
2022/01/05 05:15:41;;;;;;;;;;;4.60;99.90;;;;;;4952764;29;19914;-68
2022/01/05 05:18:06;;;;;;;;;;;4.60;99.90;;;;;;4952985;29;19961;-68
2022/01/05 05:20:35;;;;;;;;;;;4.70;99.90;;;;;;4949240;28;19911;-68
2022/01/05 05:23:00;;;;;;;;;;;4.70;99.90;;;;;;4952543;29;19966;-68
2022/01/05 05:25:26;;;;;;;;;;;4.70;99.90;;;;;;4935416;29;19918;-67
2022/01/05 05:27:52;;;;;;;;;;;4.70;99.90;;;;;;4948593;28;19918;-68
2022/01/05 05:30:18;;;;;;;;;;;4.60;99.90;;;;;;4949882;29;20159;-69
2022/01/05 05:32:43;;;;;;;;;;;4.70;99.90;;;;;;4952629;29;20001;-68
2022/01/05 05:35:09;;;;;;;;;;;4.60;99.90;;;;;;4953089;29;19917;-67
2022/01/05 05:37:35;;;;;;;;;;;4.60;99.90;;;;;;4950154;29;20384;-67
2022/01/05 05:40:00;;;;;;;;;;;4.70;99.90;;;;;;4948737;28;19973;-68
2022/01/05 05:42:26;;;;;;;;;;;4.60;99.90;;;;;;4952144;29;19966;-67
2022/01/05 05:44:52;;;;;;;;;;;4.70;99.90;;;;;;4952449;29;19953;-68
2022/01/05 05:47:18;;;;;;;;;;;4.70;99.90;;;;;;4934731;29;19914;-67
2022/01/05 05:49:45;;;;;;;;;;;4.70;99.90;;;;;;4949055;29;19914;-67
2022/01/05 05:52:11;;;;;;;;;;;4.70;99.90;;;;;;4947527;29;20001;-67
2022/01/05 05:54:36;;;;;;;;;;;4.70;99.90;;;;;;4951966;29;19941;-67
2022/01/05 05:57:02;;;;;;;;;;;4.70;99.90;;;;;;4950909;28;19914;-67
2022/01/05 05:59:27;;;;;;;;;;;4.70;99.90;;;;;;4947354;28;19910;-68
2022/01/05 06:01:53;;;;;;;;;;;4.70;99.90;;;;;;4946352;28;19941;-67
2022/01/05 06:04:19;;;;;;;;;;;4.70;99.90;;;;;;4948877;28;19911;-67
2022/01/05 06:06:45;;;;;;;;;;;4.70;99.90;;;;;;4951654;29;19914;-67
2022/01/05 06:09:10;;;;;;;;;;;4.80;99.90;;;;;;4934168;29;19918;-67
2022/01/05 06:11:36;;;;;;;;;;;4.70;99.90;;;;;;4951133;28;20369;-67
2022/01/05 06:14:01;;;;;;;;;;;4.70;99.90;;;;;;4947615;28;19915;-68
2022/01/05 06:16:27;;;;;;;;;;;4.70;99.90;;;;;;4951403;29;20029;-67
2022/01/05 06:18:52;;;;;;;;;;;4.80;99.90;;;;;;4932326;29;19972;-68
2022/01/05 06:21:18;;;;;;;;;;;4.80;99.90;;;;;;4948664;28;19921;-67
2022/01/05 06:23:43;;;;;;;;;;;4.80;99.90;;;;;;4949469;29;19949;-68
2022/01/05 06:26:09;;;;;;;;;;;4.90;99.90;;;;;;4946054;29;19989;-68
2022/01/05 06:28:34;;;;;;;;;;;4.90;99.90;;;;;;4938129;29;20296;-68
2022/01/05 06:31:00;;;;;;;;;;;4.90;99.90;;;;;;4949165;29;19949;-67
2022/01/05 06:33:25;;;;;;;;;;;4.90;99.90;;;;;;4943879;28;19918;-68
2022/01/05 06:35:51;;;;;;;;;;;4.90;99.90;;;;;;4951327;29;20373;-67
2022/01/05 06:38:16;;;;;;;;;;;4.90;99.90;;;;;;4951540;29;19918;-67
2022/01/05 06:40:42;;;;;;;;;;;4.90;99.90;;;;;;4945349;29;19915;-67
2022/01/05 06:43:07;;;;;;;;;;;5.00;99.90;;;;;;4948546;29;19911;-68
2022/01/05 06:45:33;;;;;;;;;;;5.00;99.90;;;;;;4952205;28;19910;-67
2022/01/05 06:47:58;;;;;;;;;;;5.00;99.90;;;;;;4940383;28;19914;-67
2022/01/05 06:50:24;;;;;;;;;;;5.00;99.90;;;;;;4950625;28;19925;-68
2022/01/05 06:52:50;;;;;;;;;;;5.00;99.90;;;;;;4950420;28;19918;-68
2022/01/05 06:55:16;;;;;;;;;;;5.00;99.90;;;;;;4946892;29;19921;-67
2022/01/05 06:57:42;;;;;;;;;;;5.00;99.90;;;;;;4951418;29;19953;-67
2022/01/05 07:00:11;;;;;;;;;;;5.00;99.90;;;;;;4950504;28;19911;-67
2022/01/05 07:02:37;;;;;;;;;;;5.00;99.90;;;;;;4954292;28;20000;-67
2022/01/05 07:05:03;;;;;;;;;;;5.00;99.90;;;;;;4955556;28;20538;-67
2022/01/05 07:07:29;;;;;;;;;;;5.00;99.90;;;;;;4937893;29;20292;-67
2022/01/05 07:09:54;;;;;;;;;;;5.10;99.90;;;;;;4954308;29;19914;-67
2022/01/05 07:12:20;;;;;;;;;;;5.00;99.90;;;;;;4947893;28;20389;-67
2022/01/05 07:14:45;;;;;;;;;;;5.00;99.90;;;;;;4955411;29;19910;-67
2022/01/05 07:17:11;;;;;;;;;;;5.00;99.90;;;;;;4955556;29;19910;-66
2022/01/05 07:19:36;;;;;;;;;;;5.00;99.90;;;;;;4956461;28;19910;-67
2022/01/05 07:22:02;;;;;;;;;;;5.00;99.90;;;;;;4953601;28;20037;-67
2022/01/05 07:24:27;;;;;;;;;;;4.90;99.90;;;;;;4954440;29;19965;-67
2022/01/05 07:26:53;;;;;;;;;;;5.00;99.90;;;;;;4938104;29;19914;-67
2022/01/05 07:29:19;;;;;;;;;;;5.10;99.90;;;;;;4936666;29;20489;-67
2022/01/05 07:31:44;;;;;;;;;;;5.10;99.90;;;;;;4955353;29;19911;-67
2022/01/05 07:34:10;;;;;;;;;;;5.10;99.90;;;;;;4949061;28;19938;-67
2022/01/05 07:36:36;;;;;;;;;;;5.10;99.90;;;;;;4953550;28;19917;-67
2022/01/05 07:39:04;;;;;;;;;;;5.20;99.90;;;;;;4946945;28;19915;-68
2022/01/05 07:41:31;;;;;;;;;;;5.20;99.90;;;;;;4937373;29;19914;-67
2022/01/05 07:43:56;;;;;;;;;;;5.10;99.90;;;;;;4955240;29;19946;-67
2022/01/05 07:46:21;;;;;;;;;;;5.10;99.90;;;;;;4951420;29;19952;-67
2022/01/05 07:48:47;;;;;;;;;;;5.10;99.90;;;;;;4954043;28;20017;-66
2022/01/05 07:51:13;;;;;;;;;;;5.10;99.90;;;;;;4953777;29;20366;-67
2022/01/05 07:53:38;;;;;;;;;;;5.20;99.90;;;;;;4935882;29;19973;-67
2022/01/05 07:56:04;;;;;;;;;;;5.20;99.90;;;;;;4954320;29;19915;-67
2022/01/05 07:58:29;;;;;;;;;;;5.20;99.90;;;;;;4954332;29;19910;-67
2022/01/05 08:00:55;;;;;;;;;;;5.20;99.90;;;;;;4937245;29;19911;-67
2022/01/05 08:03:20;;;;;;;;;;;5.20;99.90;;;;;;4953715;28;19970;-67
2022/01/05 08:05:46;;;;;;;;;;;5.20;99.90;;;;;;4954427;28;19929;-67
2022/01/05 08:08:12;;;;;;;;;;;5.20;99.90;;;;;;4950686;28;20075;-67
2022/01/05 08:10:37;;;;;;;;;;;5.20;99.90;;;;;;4952865;29;19914;-67
2022/01/05 08:13:03;;;;;;;;;;;5.20;99.90;;;;;;4950795;28;20393;-67
2022/01/05 08:15:28;;;;;;;;;;;5.30;99.90;;;;;;4953052;28;19910;-67
2022/01/05 08:17:54;;;;;;;;;;;5.30;99.90;;;;;;4953796;29;19910;-67
2022/01/05 08:20:19;;;;;;;;;;;5.30;99.90;;;;;;4951830;29;20408;-67
2022/01/05 08:22:45;;;;;;;;;;;5.30;99.90;;;;;;4953030;29;19926;-67
2022/01/05 08:25:12;;;;;;;;;;;5.40;99.90;;;;;;4953308;29;19911;-67
2022/01/05 08:27:45;;;;;;;;;;;5.30;99.90;;;;;;4952699;29;19949;-67
2022/01/05 08:30:22;;;;;;;;;;;5.30;99.90;;;;;;4950342;28;19915;-67
2022/01/05 08:32:48;;;;;;;;;;;5.40;99.90;;;;;;4942398;29;20317;-67
2022/01/05 08:35:15;;;;;;;;;;;5.40;99.90;;;;;;4948525;29;19950;-68
2022/01/05 08:37:44;;;;;;;;;;;5.40;99.90;;;;;;4935344;29;19917;-67
2022/01/05 08:40:11;;;;;;;;;;;5.40;99.90;;;;;;4951934;28;19917;-67
2022/01/05 08:42:36;;;;;;;;;;;5.40;99.90;;;;;;4952740;29;19919;-67
2022/01/05 08:45:02;;;;;;;;;;;5.40;99.90;;;;;;4952267;28;19914;-67
2022/01/05 08:47:28;;;;;;;;;;;5.40;99.90;;;;;;4952265;29;20273;-69
2022/01/05 08:49:53;;;;;;;;;;;5.40;99.90;;;;;;4951500;28;19953;-68
2022/01/05 08:52:19;;;;;;;;;;;5.40;99.90;;;;;;4952711;29;19961;-67
2022/01/05 08:54:44;;;;;;;;;;;5.40;99.90;;;;;;4951804;29;19911;-67
2022/01/05 08:57:09;;;;;;;;;;;5.50;99.90;;;;;;4952347;29;19910;-68
2022/01/05 08:59:36;;;;;;;;;;;5.40;99.90;;;;;;4949200;29;19910;-67
2022/01/05 09:02:02;;;;;;;;;;;5.50;99.90;;;;;;4952538;28;19910;-67
2022/01/05 09:04:28;;;;;;;;;;;5.40;99.90;;;;;;4955688;28;19910;-68
2022/01/05 09:06:53;;;;;;;;;;;5.40;99.90;;;;;;4934527;29;19910;-68
2022/01/05 09:09:19;;;;;;;;;;;5.40;99.90;;;;;;4940142;29;19914;-67
2022/01/05 09:11:46;;;;;;;;;;;5.50;99.90;;;;;;4951770;29;19958;-67
2022/01/05 09:14:11;;;;;;;;;;;5.50;99.90;;;;;;4950683;28;20341;-67
2022/01/05 09:16:37;;;;;;;;;;;5.50;99.90;;;;;;4951917;29;19954;-68
2022/01/05 09:19:04;;;;;;;;;;;5.50;99.90;;;;;;4929658;29;20188;-67
2022/01/05 09:21:29;;;;;;;;;;;5.50;99.90;;;;;;4951008;29;19910;-67
2022/01/05 09:23:55;;;;;;;;;;;5.50;99.90;;;;;;4950978;28;20337;-68
2022/01/05 09:26:20;;;;;;;;;;;5.50;99.90;;;;;;4951214;29;19944;-68
2022/01/05 09:28:46;;;;;;;;;;;5.50;99.90;;;;;;4948304;29;20080;-67
2022/01/05 09:31:12;;;;;;;;;;;5.50;99.90;;;;;;4940764;29;19915;-68
2022/01/05 09:33:37;;;;;;;;;;;5.40;99.90;;;;;;4952862;28;19914;-67
2022/01/05 09:36:11;;;;;;;;;;;5.50;99.90;;;;;;4950157;29;19910;-67
2022/01/05 09:41:56;;;;;;;;;;;5.50;99.90;;;;;;4949717;28;19966;-68
2022/01/05 09:44:08;;;;;;;;;;;5.50;99.90;;;;;;4951182;29;19969;-67
2022/01/05 09:46:36;;;;;;;;;;;5.50;99.90;;;;;;4950617;28;19910;-67
2022/01/05 09:49:10;;;;;;;;;;;5.50;99.90;;;;;;4948036;28;19918;-67
2022/01/05 09:51:38;;;;;;;;;;;5.50;99.90;;;;;;4949430;28;20404;-68
2022/01/05 09:54:03;;;;;;;;;;;5.50;99.90;;;;;;4960140;28;19918;-67
2022/01/05 09:56:29;;;;;;;;;;;5.50;99.90;;;;;;4951121;28;20326;-67
2022/01/05 09:58:56;;;;;;;;;;;5.50;99.90;;;;;;4946494;28;20100;-67
2022/01/05 10:01:22;;;;;;;;;;;5.50;99.90;;;;;;4949878;28;19922;-67
2022/01/05 10:03:47;;;;;;;;;;;5.60;99.90;;;;;;4951974;28;19910;-67
2022/01/05 10:06:13;;;;;;;;;;;5.50;99.90;;;;;;4955651;28;19910;-67
2022/01/05 10:08:39;;;;;;;;;;;5.60;99.90;;;;;;4938580;29;19949;-66
2022/01/05 10:11:04;;;;;;;;;;;5.60;99.90;;;;;;4948447;28;19917;-67
2022/01/05 10:13:30;;;;;;;;;;;5.70;99.90;;;;;;4957603;28;20005;-66
2022/01/05 10:15:56;;;;;;;;;;;5.70;99.90;;;;;;4951602;28;20152;-66
2022/01/05 10:18:24;;;;;;;;;;;5.70;99.90;;;;;;4958669;28;19917;-68
2022/01/05 10:20:57;;;;;;;;;;;5.70;99.90;;;;;;4937024;28;19918;-67
2022/01/05 10:23:33;;;;;;;;;;;5.70;99.90;;;;;;4942047;28;19914;-67
2022/01/05 10:26:16;;;;;;;;;;;5.70;99.90;;;;;;4949889;28;20369;-67
2022/01/05 10:28:42;;;;;;;;;;;5.70;99.90;;;;;;4939674;28;19922;-68
2022/01/05 10:31:12;;;;;;;;;;;5.70;99.90;;;;;;4933767;29;20369;-66
2022/01/05 10:33:38;;;;;;;;;;;5.60;99.90;;;;;;4943967;28;19926;-68
2022/01/05 10:36:03;;;;;;;;;;;5.60;99.90;;;;;;4942246;29;19910;-66
2022/01/05 10:38:29;;;;;;;;;;;5.50;99.90;;;;;;4934004;28;20420;-67
2022/01/05 10:40:55;;;;;;;;;;;5.60;99.90;;;;;;4952101;28;19918;-67
2022/01/05 10:43:20;;;;;;;;;;;5.70;99.90;;;;;;4953349;28;19941;-68
2022/01/05 10:45:47;;;;;;;;;;;5.80;99.90;;;;;;4952244;28;19914;-67
2022/01/05 10:48:14;;;;;;;;;;;5.90;99.90;;;;;;4951975;28;19973;-67
2022/01/05 10:50:40;;;;;;;;;;;5.80;99.90;;;;;;4948255;28;19918;-67
2022/01/05 10:53:06;;;;;;;;;;;6.00;99.90;;;;;;4953681;28;19922;-68
2022/01/05 10:55:37;;;;;;;;;;;6.10;99.90;;;;;;4953390;28;19946;-67
2022/01/05 10:58:07;;;;;;;;;;;6.10;99.90;;;;;;4953876;28;19917;-67
2022/01/05 11:00:52;;;;;;;;;;;6.00;99.90;;;;;;4951305;28;19918;-68
2022/01/05 11:03:33;;;;;;;;;;;6.10;99.90;;;;;;4953989;28;19911;-67
2022/01/05 11:06:02;;;;;;;;;;;6.00;99.90;;;;;;4958464;28;19998;-68
2022/01/05 11:08:29;;;;;;;;;;;5.90;99.90;;;;;;4958938;28;19994;-67
2022/01/05 11:10:54;;;;;;;;;;;6.00;99.90;;;;;;4950768;28;19910;-68
2022/01/05 11:13:20;;;;;;;;;;;6.10;99.90;;;;;;4947948;28;19911;-67
2022/01/05 11:15:45;;;;;;;;;;;6.20;99.90;;;;;;4948840;28;19914;-67
2022/01/05 11:18:11;;;;;;;;;;;6.20;99.90;;;;;;4950897;28;20358;-67
2022/01/05 11:20:38;;;;;;;;;;;6.20;99.90;;;;;;4949146;28;19964;-68
2022/01/05 11:23:04;;;;;;;;;;;6.30;99.90;;;;;;4953351;29;19911;-68
2022/01/05 11:25:30;;;;;;;;;;;6.30;99.90;;;;;;4953150;28;19949;-68
2022/01/05 11:27:56;;;;;;;;;;;6.30;99.90;;;;;;4949863;28;19957;-68
2022/01/05 11:30:21;;;;;;;;;;;6.30;99.90;;;;;;4949313;28;19910;-67
2022/01/05 11:32:47;;;;;;;;;;;6.30;99.90;;;;;;4951465;28;19919;-68
2022/01/05 11:35:13;;;;;;;;;;;6.40;99.90;;;;;;4953801;28;19916;-67
2022/01/05 11:37:38;;;;;;;;;;;6.50;99.90;;;;;;4947599;28;19964;-68
2022/01/05 11:40:05;;;;;;;;;;;6.50;99.90;;;;;;4933738;29;19972;-68
2022/01/05 11:42:37;;;;;;;;;;;6.50;99.90;;;;;;4951401;28;19917;-68
2022/01/05 11:45:04;;;;;;;;;;;6.40;99.90;;;;;;4952746;28;19914;-68
2022/01/05 11:47:30;;;;;;;;;;;6.50;99.90;;;;;;4947712;28;20226;-67
2022/01/05 11:50:15;;;;;;;;;;;6.50;99.90;;;;;;4948997;28;20013;-67
2022/01/05 11:52:54;;;;;;;;;;;6.50;99.90;;;;;;4951381;28;20009;-68
2022/01/05 11:55:19;;;;;;;;;;;6.70;99.90;;;;;;4952642;28;19927;-68
2022/01/05 11:58:12;;;;;;;;;;;6.80;99.90;;;;;;4949426;28;20415;-68
2022/01/05 12:00:37;;;;;;;;;;;6.80;99.90;;;;;;4946528;28;19910;-69
2022/01/05 12:03:03;;;;;;;;;;;6.90;99.90;;;;;;4949463;28;20293;-69
2022/01/05 12:05:48;;;;;;;;;;;6.90;99.90;;;;;;4947297;28;19910;-67
2022/01/05 12:08:32;;;;;;;;;;;6.90;99.90;;;;;;4944301;28;19970;-68
2022/01/05 12:10:59;;;;;;;;;;;7.00;99.90;;;;;;4934583;29;19922;-68
2022/01/05 12:13:35;;;;;;;;;;;6.90;99.90;;;;;;4944740;28;20207;-67
